sensor_id;sensor_type;location;lat;lon;timestamp;pressure;altitude;pressure_sealevel;temperature;humidity
77333;BME280;66408;51.326;12.070;2023-03-23T00:01:21;99811.28;;;11.34;63.79
77333;BME280;66408;51.326;12.070;2023-03-23T00:03:49;99819.09;;;11.44;62.96
77333;BME280;66408;51.326;12.070;2023-03-23T00:06:15;99811.41;;;11.55;61.63
77333;BME280;66408;51.326;12.070;2023-03-23T00:08:47;99807.88;;;11.55;62.22
77333;BME280;66408;51.326;12.070;2023-03-23T00:11:14;99802.59;;;11.58;61.95
77333;BME280;66408;51.326;12.070;2023-03-23T00:13:42;99804.00;;;11.64;61.14
77333;BME280;66408;51.326;12.070;2023-03-23T00:16:09;99797.28;;;11.70;61.10
77333;BME280;66408;51.326;12.070;2023-03-23T00:18:46;99787.19;;;11.71;62.49
77333;BME280;66408;51.326;12.070;2023-03-23T00:21:12;99787.19;;;11.62;62.81
77333;BME280;66408;51.326;12.070;2023-03-23T00:23:38;99794.09;;;11.60;62.49
77333;BME280;66408;51.326;12.070;2023-03-23T00:26:04;99786.09;;;11.55;62.36
77333;BME280;66408;51.326;12.070;2023-03-23T00:28:30;99781.97;;;11.48;62.69
77333;BME280;66408;51.326;12.070;2023-03-23T00:31:01;99794.09;;;11.60;59.56
77333;BME280;66408;51.326;12.070;2023-03-23T00:33:29;99770.00;;;11.87;57.62
77333;BME280;66408;51.326;12.070;2023-03-23T00:35:55;99774.13;;;12.11;56.19
77333;BME280;66408;51.326;12.070;2023-03-23T00:38:22;99774.44;;;12.39;54.58
77333;BME280;66408;51.326;12.070;2023-03-23T00:40:48;99772.50;;;12.69;53.16
77333;BME280;66408;51.326;12.070;2023-03-23T00:43:18;99763.53;;;12.89;52.38
77333;BME280;66408;51.326;12.070;2023-03-23T00:45:44;99766.53;;;12.96;53.10
77333;BME280;66408;51.326;12.070;2023-03-23T00:48:15;99772.19;;;12.91;53.90
77333;BME280;66408;51.326;12.070;2023-03-23T00:50:40;99774.72;;;12.96;52.64
77333;BME280;66408;51.326;12.070;2023-03-23T00:53:06;99769.44;;;12.91;53.39
77333;BME280;66408;51.326;12.070;2023-03-23T00:55:32;99766.19;;;12.77;53.41
77333;BME280;66408;51.326;12.070;2023-03-23T00:57:59;99768.78;;;12.73;53.60
77333;BME280;66408;51.326;12.070;2023-03-23T01:00:24;99760.47;;;12.70;54.18
77333;BME280;66408;51.326;12.070;2023-03-23T01:02:50;99770.16;;;12.58;55.11
77333;BME280;66408;51.326;12.070;2023-03-23T01:05:17;99767.94;;;12.52;56.33
77333;BME280;66408;51.326;12.070;2023-03-23T01:07:43;99771.06;;;12.42;56.53
77333;BME280;66408;51.326;12.070;2023-03-23T01:10:10;99768.19;;;12.38;56.28
77333;BME280;66408;51.326;12.070;2023-03-23T01:12:38;99755.59;;;12.25;57.38
77333;BME280;66408;51.326;12.070;2023-03-23T01:15:05;99763.44;;;12.27;57.53
77333;BME280;66408;51.326;12.070;2023-03-23T01:17:31;99763.63;;;12.21;57.99
77333;BME280;66408;51.326;12.070;2023-03-23T01:19:56;99752.75;;;12.13;58.87
77333;BME280;66408;51.326;12.070;2023-03-23T01:22:22;99752.66;;;12.01;59.75
77333;BME280;66408;51.326;12.070;2023-03-23T01:24:47;99744.53;;;11.92;60.28
77333;BME280;66408;51.326;12.070;2023-03-23T01:27:13;99735.13;;;11.81;61.33
77333;BME280;66408;51.326;12.070;2023-03-23T01:29:39;99739.75;;;11.80;60.98
77333;BME280;66408;51.326;12.070;2023-03-23T01:32:04;99739.75;;;11.80;60.99
77333;BME280;66408;51.326;12.070;2023-03-23T01:34:30;99724.06;;;11.77;61.22
77333;BME280;66408;51.326;12.070;2023-03-23T01:36:56;99725.47;;;11.75;61.07
77333;BME280;66408;51.326;12.070;2023-03-23T01:39:22;99720.03;;;11.75;59.68
77333;BME280;66408;51.326;12.070;2023-03-23T01:41:47;99717.97;;;11.72;60.69
77333;BME280;66408;51.326;12.070;2023-03-23T01:46:42;99720.53;;;11.77;59.72
77333;BME280;66408;51.326;12.070;2023-03-23T01:49:12;99717.75;;;11.94;57.82
77333;BME280;66408;51.326;12.070;2023-03-23T01:51:52;99707.34;;;11.96;58.37
77333;BME280;66408;51.326;12.070;2023-03-23T01:54:20;99702.78;;;12.09;57.42
77333;BME280;66408;51.326;12.070;2023-03-23T01:57:05;99705.44;;;12.17;56.69
77333;BME280;66408;51.326;12.070;2023-03-23T01:59:42;99715.94;;;12.36;55.75
77333;BME280;66408;51.326;12.070;2023-03-23T02:02:08;99717.00;;;12.44;56.26
77333;BME280;66408;51.326;12.070;2023-03-23T02:04:36;99717.59;;;12.49;55.80
77333;BME280;66408;51.326;12.070;2023-03-23T02:07:02;99710.81;;;12.35;56.50
77333;BME280;66408;51.326;12.070;2023-03-23T02:09:28;99716.53;;;12.42;56.38
77333;BME280;66408;51.326;12.070;2023-03-23T02:11:54;99711.22;;;12.45;56.10
77333;BME280;66408;51.326;12.070;2023-03-23T02:14:21;99714.78;;;12.37;56.64
77333;BME280;66408;51.326;12.070;2023-03-23T02:22:48;99706.41;;;12.42;57.22
77333;BME280;66408;51.326;12.070;2023-03-23T02:28:05;99692.72;;;12.30;57.21
77333;BME280;66408;51.326;12.070;2023-03-23T02:30:50;99688.44;;;12.20;57.54
77333;BME280;66408;51.326;12.070;2023-03-23T02:38:31;99689.34;;;12.04;60.27
77333;BME280;66408;51.326;12.070;2023-03-23T02:41:01;99687.00;;;11.94;60.44
77333;BME280;66408;51.326;12.070;2023-03-23T02:43:33;99687.78;;;11.94;59.27
77333;BME280;66408;51.326;12.070;2023-03-23T02:46:01;99688.75;;;11.90;59.11
77333;BME280;66408;51.326;12.070;2023-03-23T02:48:31;99683.31;;;11.90;59.25
77333;BME280;66408;51.326;12.070;2023-03-23T02:50:59;99679.94;;;11.93;59.05
77333;BME280;66408;51.326;12.070;2023-03-23T02:53:27;99680.13;;;11.87;59.62
77333;BME280;66408;51.326;12.070;2023-03-23T02:55:55;99678.53;;;11.86;59.13
77333;BME280;66408;51.326;12.070;2023-03-23T02:58:22;99672.47;;;11.81;59.52
77333;BME280;66408;51.326;12.070;2023-03-23T03:00:49;99679.31;;;11.87;58.70
77333;BME280;66408;51.326;12.070;2023-03-23T03:03:19;99672.28;;;11.86;58.88
77333;BME280;66408;51.326;12.070;2023-03-23T03:08:52;99663.34;;;11.68;60.41
77333;BME280;66408;51.326;12.070;2023-03-23T03:11:20;99666.09;;;11.68;60.86
77333;BME280;66408;51.326;12.070;2023-03-23T03:14:04;99669.28;;;11.70;60.79
77333;BME280;66408;51.326;12.070;2023-03-23T03:16:44;99669.13;;;11.67;60.93
77333;BME280;66408;51.326;12.070;2023-03-23T03:19:24;99672.38;;;11.60;60.16
77333;BME280;66408;51.326;12.070;2023-03-23T03:21:53;99672.69;;;11.59;60.82
77333;BME280;66408;51.326;12.070;2023-03-23T03:24:20;99659.09;;;11.59;60.87
77333;BME280;66408;51.326;12.070;2023-03-23T03:26:49;99662.59;;;11.59;60.59
77333;BME280;66408;51.326;12.070;2023-03-23T03:29:21;99669.66;;;11.60;60.53
77333;BME280;66408;51.326;12.070;2023-03-23T03:31:49;99668.19;;;11.63;60.12
77333;BME280;66408;51.326;12.070;2023-03-23T03:34:15;99666.59;;;11.62;60.40
77333;BME280;66408;51.326;12.070;2023-03-23T03:36:46;99670.38;;;11.78;58.69
77333;BME280;66408;51.326;12.070;2023-03-23T03:39:15;99664.56;;;11.88;58.60
77333;BME280;66408;51.326;12.070;2023-03-23T03:41:43;99664.88;;;11.95;57.90
77333;BME280;66408;51.326;12.070;2023-03-23T03:44:09;99656.78;;;12.07;57.30
77333;BME280;66408;51.326;12.070;2023-03-23T03:46:35;99665.69;;;12.16;56.90
77333;BME280;66408;51.326;12.070;2023-03-23T03:49:03;99649.03;;;12.39;55.99
77333;BME280;66408;51.326;12.070;2023-03-23T03:51:31;99639.06;;;12.43;55.55
77333;BME280;66408;51.326;12.070;2023-03-23T03:53:57;99643.97;;;12.49;56.12
77333;BME280;66408;51.326;12.070;2023-03-23T03:56:32;99647.88;;;12.40;56.04
77333;BME280;66408;51.326;12.070;2023-03-23T03:59:01;99651.22;;;12.45;55.74
77333;BME280;66408;51.326;12.070;2023-03-23T04:01:28;99660.53;;;12.44;56.14
77333;BME280;66408;51.326;12.070;2023-03-23T04:03:54;99667.38;;;12.50;55.57
77333;BME280;66408;51.326;12.070;2023-03-23T04:06:20;99660.06;;;12.63;54.64
77333;BME280;66408;51.326;12.070;2023-03-23T04:08:45;99671.81;;;12.76;54.91
77333;BME280;66408;51.326;12.070;2023-03-23T04:11:12;99673.09;;;12.78;54.91
77333;BME280;66408;51.326;12.070;2023-03-23T04:13:39;99667.38;;;12.71;55.31
77333;BME280;66408;51.326;12.070;2023-03-23T04:16:05;99671.34;;;12.74;55.65
77333;BME280;66408;51.326;12.070;2023-03-23T04:18:32;99668.84;;;12.69;55.96
77333;BME280;66408;51.326;12.070;2023-03-23T04:20:58;99671.91;;;12.67;56.03
77333;BME280;66408;51.326;12.070;2023-03-23T04:23:26;99671.91;;;12.67;56.20
77333;BME280;66408;51.326;12.070;2023-03-23T04:25:53;99670.44;;;12.70;56.02
77333;BME280;66408;51.326;12.070;2023-03-23T04:28:22;99672.78;;;12.59;57.29
77333;BME280;66408;51.326;12.070;2023-03-23T04:30:50;99675.22;;;12.52;57.15
77333;BME280;66408;51.326;12.070;2023-03-23T04:33:19;99671.22;;;12.49;57.08
77333;BME280;66408;51.326;12.070;2023-03-23T04:35:45;99685.22;;;12.48;57.15
77333;BME280;66408;51.326;12.070;2023-03-23T04:38:14;99689.41;;;12.45;57.58
77333;BME280;66408;51.326;12.070;2023-03-23T04:40:42;99685.41;;;12.43;57.65
77333;BME280;66408;51.326;12.070;2023-03-23T04:43:08;99686.88;;;12.40;57.74
77333;BME280;66408;51.326;12.070;2023-03-23T04:45:38;99686.06;;;12.40;57.63
77333;BME280;66408;51.326;12.070;2023-03-23T04:48:07;99683.47;;;12.43;57.64
77333;BME280;66408;51.326;12.070;2023-03-23T04:50:34;99682.03;;;12.46;57.32
77333;BME280;66408;51.326;12.070;2023-03-23T04:53:02;99683.94;;;12.45;57.00
77333;BME280;66408;51.326;12.070;2023-03-23T04:55:34;99691.34;;;12.45;57.20
77333;BME280;66408;51.326;12.070;2023-03-23T04:58:04;99694.00;;;12.53;56.99
77333;BME280;66408;51.326;12.070;2023-03-23T05:00:31;99692.78;;;12.63;56.90
77333;BME280;66408;51.326;12.070;2023-03-23T05:02:58;99691.94;;;12.71;56.65
77333;BME280;66408;51.326;12.070;2023-03-23T05:05:24;99689.22;;;12.71;57.19
77333;BME280;66408;51.326;12.070;2023-03-23T05:07:51;99679.75;;;12.69;57.49
77333;BME280;66408;51.326;12.070;2023-03-23T05:10:17;99684.88;;;12.70;57.63
77333;BME280;66408;51.326;12.070;2023-03-23T05:12:43;99681.03;;;12.71;57.38
77333;BME280;66408;51.326;12.070;2023-03-23T05:15:10;99675.75;;;12.66;57.64
77333;BME280;66408;51.326;12.070;2023-03-23T05:17:36;99687.34;;;12.63;57.63
77333;BME280;66408;51.326;12.070;2023-03-23T05:20:03;99692.00;;;12.63;58.04
77333;BME280;66408;51.326;12.070;2023-03-23T05:22:30;99700.84;;;12.59;57.95
77333;BME280;66408;51.326;12.070;2023-03-23T05:24:58;99690.28;;;12.58;57.77
77333;BME280;66408;51.326;12.070;2023-03-23T05:27:24;99693.81;;;12.58;58.68
77333;BME280;66408;51.326;12.070;2023-03-23T05:29:53;99693.84;;;12.50;58.83
77333;BME280;66408;51.326;12.070;2023-03-23T05:32:19;99699.66;;;12.48;58.74
77333;BME280;66408;51.326;12.070;2023-03-23T05:34:45;99706.56;;;12.46;59.24
77333;BME280;66408;51.326;12.070;2023-03-23T05:37:11;99725.19;;;12.44;59.56
77333;BME280;66408;51.326;12.070;2023-03-23T05:39:37;99716.06;;;12.40;59.77
77333;BME280;66408;51.326;12.070;2023-03-23T05:42:03;99706.97;;;12.36;60.52
77333;BME280;66408;51.326;12.070;2023-03-23T05:44:30;99716.38;;;12.38;60.14
77333;BME280;66408;51.326;12.070;2023-03-23T05:46:55;99712.25;;;12.32;61.11
77333;BME280;66408;51.326;12.070;2023-03-23T05:49:21;99727.81;;;12.32;61.08
77333;BME280;66408;51.326;12.070;2023-03-23T05:51:47;99732.00;;;12.29;61.79
77333;BME280;66408;51.326;12.070;2023-03-23T05:54:13;99724.94;;;12.28;61.22
77333;BME280;66408;51.326;12.070;2023-03-23T05:56:39;99727.03;;;12.31;61.63
77333;BME280;66408;51.326;12.070;2023-03-23T05:59:06;99743.88;;;12.24;62.70
77333;BME280;66408;51.326;12.070;2023-03-23T06:01:31;99734.47;;;12.22;62.28
77333;BME280;66408;51.326;12.070;2023-03-23T06:03:57;99739.09;;;12.21;62.78
77333;BME280;66408;51.326;12.070;2023-03-23T06:06:25;99747.41;;;12.25;62.64
77333;BME280;66408;51.326;12.070;2023-03-23T06:08:50;99751.41;;;12.28;62.18
77333;BME280;66408;51.326;12.070;2023-03-23T06:11:16;99756.53;;;12.29;62.41
77333;BME280;66408;51.326;12.070;2023-03-23T06:13:42;99745.63;;;12.29;62.16
77333;BME280;66408;51.326;12.070;2023-03-23T06:16:08;99752.84;;;12.34;61.76
77333;BME280;66408;51.326;12.070;2023-03-23T06:18:34;99743.31;;;12.40;63.12
77333;BME280;66408;51.326;12.070;2023-03-23T06:21:03;99747.78;;;12.44;62.68
77333;BME280;66408;51.326;12.070;2023-03-23T06:23:29;99757.09;;;12.43;62.66
77333;BME280;66408;51.326;12.070;2023-03-23T06:25:58;99760.78;;;12.47;62.27
77333;BME280;66408;51.326;12.070;2023-03-23T06:28:25;99758.97;;;12.51;62.97
77333;BME280;66408;51.326;12.070;2023-03-23T06:30:52;99760.56;;;12.52;63.08
77333;BME280;66408;51.326;12.070;2023-03-23T06:33:18;99767.28;;;12.55;62.42
77333;BME280;66408;51.326;12.070;2023-03-23T06:35:43;99766.03;;;12.52;63.88
77333;BME280;66408;51.326;12.070;2023-03-23T06:38:09;99760.56;;;12.52;63.70
77333;BME280;66408;51.326;12.070;2023-03-23T06:40:35;99763.13;;;12.57;64.48
77333;BME280;66408;51.326;12.070;2023-03-23T06:43:04;99765.84;;;12.57;64.53
77333;BME280;66408;51.326;12.070;2023-03-23T06:45:32;99763.22;;;12.61;64.75
77333;BME280;66408;51.326;12.070;2023-03-23T06:47:58;99780.13;;;12.54;64.76
77333;BME280;66408;51.326;12.070;2023-03-23T06:50:23;99774.94;;;12.62;64.81
77333;BME280;66408;51.326;12.070;2023-03-23T06:52:50;99777.47;;;12.67;63.75
77333;BME280;66408;51.326;12.070;2023-03-23T06:55:16;99769.91;;;12.72;62.06
77333;BME280;66408;51.326;12.070;2023-03-23T06:57:42;99777.91;;;12.77;62.35
77333;BME280;66408;51.326;12.070;2023-03-23T07:00:11;99781.63;;;12.73;63.67
77333;BME280;66408;51.326;12.070;2023-03-23T07:02:39;99790.25;;;12.75;63.14
77333;BME280;66408;51.326;12.070;2023-03-23T07:05:07;99789.94;;;12.76;62.45
77333;BME280;66408;51.326;12.070;2023-03-23T07:07:32;99795.38;;;12.76;63.37
77333;BME280;66408;51.326;12.070;2023-03-23T07:09:58;99797.66;;;12.74;63.93
77333;BME280;66408;51.326;12.070;2023-03-23T07:12:24;99798.44;;;12.75;64.06
77333;BME280;66408;51.326;12.070;2023-03-23T07:14:49;99792.88;;;12.71;63.99
77333;BME280;66408;51.326;12.070;2023-03-23T07:17:15;99798.31;;;12.71;64.69
77333;BME280;66408;51.326;12.070;2023-03-23T07:19:40;99801.38;;;12.70;64.96
77333;BME280;66408;51.326;12.070;2023-03-23T07:22:07;99800.91;;;12.68;65.38
77333;BME280;66408;51.326;12.070;2023-03-23T07:24:33;99796.72;;;12.70;65.28
77333;BME280;66408;51.326;12.070;2023-03-23T07:26:59;99791.28;;;12.70;65.68
77333;BME280;66408;51.326;12.070;2023-03-23T07:29:25;99794.47;;;12.72;66.21
77333;BME280;66408;51.326;12.070;2023-03-23T07:31:52;99793.00;;;12.75;65.85
77333;BME280;66408;51.326;12.070;2023-03-23T07:34:38;99803.25;;;12.78;65.96
77333;BME280;66408;51.326;12.070;2023-03-23T07:37:04;99794.25;;;12.77;65.09
77333;BME280;66408;51.326;12.070;2023-03-23T07:39:30;99790.88;;;12.80;65.64
77333;BME280;66408;51.326;12.070;2023-03-23T07:41:56;99785.88;;;12.82;65.11
77333;BME280;66408;51.326;12.070;2023-03-23T07:44:22;99783.50;;;12.81;65.43
77333;BME280;66408;51.326;12.070;2023-03-23T07:46:48;99788.16;;;12.80;65.21
77333;BME280;66408;51.326;12.070;2023-03-23T07:49:22;99791.69;;;12.81;66.45
77333;BME280;66408;51.326;12.070;2023-03-23T07:51:54;99800.53;;;12.78;66.28
77333;BME280;66408;51.326;12.070;2023-03-23T07:54:24;99787.59;;;12.87;65.98
77333;BME280;66408;51.326;12.070;2023-03-23T07:56:49;99791.59;;;12.89;66.72
77333;BME280;66408;51.326;12.070;2023-03-23T07:59:16;99784.44;;;13.06;66.49
77333;BME280;66408;51.326;12.070;2023-03-23T08:01:41;99782.84;;;13.05;66.33
77333;BME280;66408;51.326;12.070;2023-03-23T08:04:08;99782.09;;;12.95;66.41
77333;BME280;66408;51.326;12.070;2023-03-23T08:06:34;99776.84;;;12.90;66.23
77333;BME280;66408;51.326;12.070;2023-03-23T08:09:00;99778.28;;;12.88;66.93
77333;BME280;66408;51.326;12.070;2023-03-23T08:11:33;99783.75;;;12.88;67.39
77333;BME280;66408;51.326;12.070;2023-03-23T08:13:59;99780.09;;;12.84;67.89
77333;BME280;66408;51.326;12.070;2023-03-23T08:16:25;99781.72;;;12.85;67.85
77333;BME280;66408;51.326;12.070;2023-03-23T08:18:50;99774.31;;;12.85;68.26
77333;BME280;66408;51.326;12.070;2023-03-23T08:21:17;99775.09;;;12.86;67.95
77333;BME280;66408;51.326;12.070;2023-03-23T08:23:42;99785.56;;;12.84;67.69
77333;BME280;66408;51.326;12.070;2023-03-23T08:26:09;99782.03;;;12.83;68.08
77333;BME280;66408;51.326;12.070;2023-03-23T08:28:35;99781.16;;;12.91;67.44
77333;BME280;66408;51.326;12.070;2023-03-23T08:31:08;99784.44;;;13.06;67.25
77333;BME280;66408;51.326;12.070;2023-03-23T08:33:35;99774.53;;;13.22;66.10
77333;BME280;66408;51.326;12.070;2023-03-23T08:36:02;99780.44;;;13.45;65.56
77333;BME280;66408;51.326;12.070;2023-03-23T08:38:28;99773.88;;;13.58;64.59
77333;BME280;66408;51.326;12.070;2023-03-23T08:41:01;99766.06;;;13.81;64.81
77333;BME280;66408;51.326;12.070;2023-03-23T08:43:29;99762.22;;;13.94;63.91
77333;BME280;66408;51.326;12.070;2023-03-23T08:45:54;99759.72;;;14.01;62.03
77333;BME280;66408;51.326;12.070;2023-03-23T08:48:21;99766.66;;;14.11;63.23
77333;BME280;66408;51.326;12.070;2023-03-23T08:50:47;99770.75;;;14.05;61.68
77333;BME280;66408;51.326;12.070;2023-03-23T08:53:13;99772.69;;;14.04;61.91
77333;BME280;66408;51.326;12.070;2023-03-23T08:55:39;99766.66;;;13.98;63.01
77333;BME280;66408;51.326;12.070;2023-03-23T08:58:05;99767.22;;;13.92;61.81
77333;BME280;66408;51.326;12.070;2023-03-23T09:00:31;99763.09;;;13.86;62.38
77333;BME280;66408;51.326;12.070;2023-03-23T09:02:57;99770.16;;;13.87;63.08
77333;BME280;66408;51.326;12.070;2023-03-23T09:05:25;99764.03;;;13.90;62.45
77333;BME280;66408;51.326;12.070;2023-03-23T09:07:53;99763.25;;;14.01;62.71
77333;BME280;66408;51.326;12.070;2023-03-23T09:10:19;99767.78;;;14.22;62.06
77333;BME280;66408;51.326;12.070;2023-03-23T09:12:46;99771.25;;;14.43;60.47
77333;BME280;66408;51.326;12.070;2023-03-23T09:15:15;99778.66;;;14.55;61.20
77333;BME280;66408;51.326;12.070;2023-03-23T09:17:43;99782.88;;;14.52;59.27
77333;BME280;66408;51.326;12.070;2023-03-23T09:20:09;99779.47;;;14.43;59.14
77333;BME280;66408;51.326;12.070;2023-03-23T09:22:50;99783.91;;;14.48;60.87
77333;BME280;66408;51.326;12.070;2023-03-23T09:25:18;99768.59;;;14.59;59.64
77333;BME280;66408;51.326;12.070;2023-03-23T09:27:47;99766.31;;;14.61;59.09
77333;BME280;66408;51.326;12.070;2023-03-23T09:30:19;99772.50;;;14.58;59.06
77333;BME280;66408;51.326;12.070;2023-03-23T09:32:46;99772.59;;;14.61;59.56
77333;BME280;66408;51.326;12.070;2023-03-23T09:35:14;99782.16;;;14.80;58.94
77333;BME280;66408;51.326;12.070;2023-03-23T09:37:42;99780.44;;;14.87;55.86
77333;BME280;66408;51.326;12.070;2023-03-23T09:40:21;99779.50;;;14.95;57.47
77333;BME280;66408;51.326;12.070;2023-03-23T09:43:07;99768.31;;;15.00;58.32
77333;BME280;66408;51.326;12.070;2023-03-23T09:45:43;99774.88;;;15.12;58.54
77333;BME280;66408;51.326;12.070;2023-03-23T09:48:20;99785.25;;;15.18;56.38
77333;BME280;66408;51.326;12.070;2023-03-23T09:50:51;99779.81;;;15.34;55.49
77333;BME280;66408;51.326;12.070;2023-03-23T09:53:29;99791.09;;;15.44;55.60
77333;BME280;66408;51.326;12.070;2023-03-23T09:56:01;99793.34;;;15.55;56.36
77333;BME280;66408;51.326;12.070;2023-03-23T09:58:36;99791.16;;;15.60;55.35
77333;BME280;66408;51.326;12.070;2023-03-23T10:01:17;99795.41;;;15.58;54.85
77333;BME280;66408;51.326;12.070;2023-03-23T10:03:45;99800.63;;;15.63;55.68
77333;BME280;66408;51.326;12.070;2023-03-23T10:06:17;99792.16;;;15.68;55.50
77333;BME280;66408;51.326;12.070;2023-03-23T10:08:52;99792.31;;;15.75;54.00
77333;BME280;66408;51.326;12.070;2023-03-23T10:21:59;99792.94;;;15.68;53.12
77333;BME280;66408;51.326;12.070;2023-03-23T10:24:34;99798.50;;;15.72;52.61
77333;BME280;66408;51.326;12.070;2023-03-23T10:27:26;99798.78;;;15.67;52.84
77333;BME280;66408;51.326;12.070;2023-03-23T10:30:08;99805.50;;;15.69;53.33
77333;BME280;66408;51.326;12.070;2023-03-23T10:35:11;99806.38;;;15.58;52.67
77333;BME280;66408;51.326;12.070;2023-03-23T10:37:44;99805.13;;;15.55;52.43
77333;BME280;66408;51.326;12.070;2023-03-23T10:40:21;99806.00;;;15.47;52.42
77333;BME280;66408;51.326;12.070;2023-03-23T10:42:50;99809.91;;;15.46;53.08
77333;BME280;66408;51.326;12.070;2023-03-23T10:45:21;99822.13;;;15.49;51.77
77333;BME280;66408;51.326;12.070;2023-03-23T10:50:32;99807.88;;;15.43;51.22
77333;BME280;66408;51.326;12.070;2023-03-23T10:53:00;99810.75;;;15.34;51.71
77333;BME280;66408;51.326;12.070;2023-03-23T10:55:39;99808.47;;;15.36;52.13
77333;BME280;66408;51.326;12.070;2023-03-23T10:58:21;99806.19;;;15.38;51.58
77333;BME280;66408;51.326;12.070;2023-03-23T11:00:48;99810.69;;;15.46;51.18
77333;BME280;66408;51.326;12.070;2023-03-23T11:08:18;99819.47;;;15.52;52.43
77333;BME280;66408;51.326;12.070;2023-03-23T11:10:53;99824.31;;;15.43;51.37
77333;BME280;66408;51.326;12.070;2023-03-23T11:13:22;99822.44;;;15.31;51.74
77333;BME280;66408;51.326;12.070;2023-03-23T11:15:49;99821.66;;;15.19;52.42
77333;BME280;66408;51.326;12.070;2023-03-23T11:20:49;99829.56;;;15.08;53.29
77333;BME280;66408;51.326;12.070;2023-03-23T11:23:30;99819.19;;;15.01;53.58
77333;BME280;66408;51.326;12.070;2023-03-23T11:28:35;99831.75;;;14.90;54.25
77333;BME280;66408;51.326;12.070;2023-03-23T11:31:03;99837.69;;;14.92;54.77
77333;BME280;66408;51.326;12.070;2023-03-23T11:33:36;99848.75;;;14.84;54.82
77333;BME280;66408;51.326;12.070;2023-03-23T11:36:05;99846.38;;;14.82;54.97
77333;BME280;66408;51.326;12.070;2023-03-23T11:38:32;99843.84;;;14.77;54.76
77333;BME280;66408;51.326;12.070;2023-03-23T11:40:59;99832.22;;;14.80;54.46
77333;BME280;66408;51.326;12.070;2023-03-23T11:43:24;99838.97;;;14.83;54.63
77333;BME280;66408;51.326;12.070;2023-03-23T11:45:58;99835.28;;;14.91;54.66
77333;BME280;66408;51.326;12.070;2023-03-23T11:49:12;99832.41;;;14.99;55.60
77333;BME280;66408;51.326;12.070;2023-03-23T11:51:46;99825.53;;;15.18;54.28
77333;BME280;66408;51.326;12.070;2023-03-23T11:54:26;99817.28;;;15.30;53.67
77333;BME280;66408;51.326;12.070;2023-03-23T11:56:53;99827.13;;;15.46;53.28
77333;BME280;66408;51.326;12.070;2023-03-23T11:59:34;99816.72;;;15.64;53.23
77333;BME280;66408;51.326;12.070;2023-03-23T12:10:34;99822.53;;;15.63;53.02
77333;BME280;66408;51.326;12.070;2023-03-23T12:13:28;99819.69;;;15.59;52.62
77333;BME280;66408;51.326;12.070;2023-03-23T12:16:10;99823.22;;;15.60;52.71
77333;BME280;66408;51.326;12.070;2023-03-23T12:18:48;99816.06;;;15.55;51.72
77333;BME280;66408;51.326;12.070;2023-03-23T12:24:27;99805.25;;;15.74;51.25
77333;BME280;66408;51.326;12.070;2023-03-23T12:32:52;99783.97;;;16.31;48.33
77333;BME280;66408;51.326;12.070;2023-03-23T12:35:42;99764.84;;;16.85;46.28
77333;BME280;66408;51.326;12.070;2023-03-23T12:41:00;99767.91;;;17.38;46.31
77333;BME280;66408;51.326;12.070;2023-03-23T12:44:00;99781.19;;;17.36;44.77
77333;BME280;66408;51.326;12.070;2023-03-23T12:52:02;99776.28;;;17.26;44.77
77333;BME280;66408;51.326;12.070;2023-03-23T12:54:32;99784.34;;;17.57;45.09
77333;BME280;66408;51.326;12.070;2023-03-23T12:57:18;99766.34;;;18.02;44.08
77333;BME280;66408;51.326;12.070;2023-03-23T12:59:51;99780.06;;;18.47;44.21
77333;BME280;66408;51.326;12.070;2023-03-23T13:02:30;99780.34;;;18.42;43.50
77333;BME280;66408;51.326;12.070;2023-03-23T13:07:56;99787.94;;;17.38;44.58
77333;BME280;66408;51.326;12.070;2023-03-23T13:10:29;99784.38;;;16.99;46.27
77333;BME280;66408;51.326;12.070;2023-03-23T13:12:57;99789.22;;;16.71;47.67
77333;BME280;66408;51.326;12.070;2023-03-23T13:26:11;99792.28;;;16.19;49.57
77333;BME280;66408;51.326;12.070;2023-03-23T13:31:22;99796.16;;;15.86;50.48
77333;BME280;66408;51.326;12.070;2023-03-23T13:34:02;99795.34;;;15.86;50.32
77333;BME280;66408;51.326;12.070;2023-03-23T13:36:42;99792.94;;;15.84;50.93
77333;BME280;66408;51.326;12.070;2023-03-23T13:39:27;99782.72;;;15.81;50.82
77333;BME280;66408;51.326;12.070;2023-03-23T13:55:18;99793.81;;;15.57;52.00
77333;BME280;66408;51.326;12.070;2023-03-23T14:11:01;99812.56;;;15.42;52.12
77333;BME280;66408;51.326;12.070;2023-03-23T14:13:33;99797.50;;;15.36;52.80
77333;BME280;66408;51.326;12.070;2023-03-23T14:16:02;99792.72;;;15.33;53.03
77333;BME280;66408;51.326;12.070;2023-03-23T14:18:39;99799.00;;;15.34;53.08
77333;BME280;66408;51.326;12.070;2023-03-23T14:21:11;99795.16;;;15.23;53.42
77333;BME280;66408;51.326;12.070;2023-03-23T14:23:39;99791.88;;;15.17;53.12
77333;BME280;66408;51.326;12.070;2023-03-23T14:26:15;99794.34;;;15.22;53.47
77333;BME280;66408;51.326;12.070;2023-03-23T14:28:44;99789.94;;;15.18;54.03
77333;BME280;66408;51.326;12.070;2023-03-23T14:31:29;99795.41;;;15.18;53.14
77333;BME280;66408;51.326;12.070;2023-03-23T14:33:56;99800.91;;;15.18;53.94
77333;BME280;66408;51.326;12.070;2023-03-23T14:36:24;99800.63;;;15.23;53.91
77333;BME280;66408;51.326;12.070;2023-03-23T14:39:09;99812.53;;;15.15;54.10
77333;BME280;66408;51.326;12.070;2023-03-23T14:41:38;99812.09;;;15.13;54.13
77333;BME280;66408;51.326;12.070;2023-03-23T14:44:07;99810.81;;;15.10;53.86
77333;BME280;66408;51.326;12.070;2023-03-23T14:46:34;99813.13;;;15.08;54.35
77333;BME280;66408;51.326;12.070;2023-03-23T14:49:02;99803.75;;;15.09;54.37
77333;BME280;66408;51.326;12.070;2023-03-23T14:51:28;99809.16;;;15.05;54.90
77333;BME280;66408;51.326;12.070;2023-03-23T14:53:54;99821.25;;;14.92;55.20
77333;BME280;66408;51.326;12.070;2023-03-23T14:56:22;99821.38;;;14.96;55.98